createdAt,value
2023-04-16T00:00:32.330Z,95.54
2023-04-16T00:03:33.868Z,95.47
2023-04-16T00:06:23.153Z,95.95
2023-04-16T00:09:11.115Z,96.04
2023-04-16T00:11:59.480Z,96.18
2023-04-16T00:14:47.187Z,96.45
2023-04-16T00:17:35.313Z,97.09
2023-04-16T00:20:23.138Z,97.22
2023-04-16T00:23:11.031Z,97.59
2023-04-16T00:26:00.291Z,98.26
2023-04-16T00:28:48.186Z,98.19
2023-04-16T00:31:37.030Z,98.11
2023-04-16T00:34:25.116Z,98.52
2023-04-16T00:37:12.946Z,98.52
2023-04-16T00:40:01.697Z,98.60
2023-04-16T00:42:49.827Z,98.56
2023-04-16T00:45:37.833Z,98.52
2023-04-16T00:48:28.329Z,98.68
2023-04-16T00:51:17.084Z,98.58
2023-04-16T00:54:06.517Z,98.67
2023-04-16T00:56:54.208Z,99.08
2023-04-16T00:59:42.520Z,99.27
2023-04-16T01:02:30.680Z,99.07
2023-04-16T01:05:18.339Z,98.89
2023-04-16T01:08:06.693Z,99.09
2023-04-16T01:10:54.289Z,98.98
2023-04-16T01:13:42.560Z,99.26
2023-04-16T01:16:30.953Z,99.50
2023-04-16T01:19:18.734Z,99.13
2023-04-16T01:22:09.024Z,99.06
2023-04-16T01:24:56.946Z,99.19
2023-04-16T01:27:44.774Z,99.00
2023-04-16T01:30:32.646Z,98.99
2023-04-16T01:33:35.674Z,98.94
2023-04-16T01:36:23.440Z,99.14
2023-04-16T01:39:15.630Z,99.23
2023-04-16T01:42:03.394Z,99.04
2023-04-16T01:44:51.283Z,99.09
2023-04-16T01:47:43.023Z,98.97
2023-04-16T01:50:31.450Z,99.17
2023-04-16T01:53:19.214Z,99.05
2023-04-16T01:56:07.820Z,99.63
2023-04-16T01:58:56.232Z,99.09
2023-04-16T02:01:44.757Z,99.22
2023-04-16T02:04:32.728Z,99.69
2023-04-16T02:07:20.359Z,99.78
2023-04-16T02:10:10.403Z,99.62
2023-04-16T02:12:59.860Z,99.85
2023-04-16T02:15:51.966Z,99.49
2023-04-16T02:18:53.039Z,99.68
2023-04-16T02:21:42.823Z,99.86
2023-04-16T02:24:30.845Z,99.73
2023-04-16T02:27:20.028Z,99.98
2023-04-16T02:30:10.736Z,100.00
2023-04-16T02:32:59.232Z,100.00
2023-04-16T02:35:48.748Z,100.00
2023-04-16T02:38:37.612Z,100.00
2023-04-16T02:41:25.690Z,100.00
2023-04-16T02:44:13.855Z,100.00
2023-04-16T02:47:01.736Z,100.00
2023-04-16T02:49:49.521Z,100.00
2023-04-16T02:52:37.330Z,100.00
2023-04-16T02:55:25.111Z,100.00
2023-04-16T02:58:12.744Z,100.00
2023-04-16T03:01:00.715Z,100.00
2023-04-16T03:03:48.512Z,100.00
2023-04-16T03:06:36.239Z,100.00
2023-04-16T03:09:24.244Z,100.00
2023-04-16T03:12:14.507Z,100.00
2023-04-16T03:15:02.603Z,100.00
2023-04-16T03:17:51.331Z,100.00
2023-04-16T03:20:39.335Z,100.00
2023-04-16T03:23:28.278Z,100.00
2023-04-16T03:26:16.514Z,100.00
2023-04-16T03:29:04.689Z,100.00
2023-04-16T03:31:52.664Z,100.00
2023-04-16T03:34:41.531Z,100.00
2023-04-16T03:37:29.257Z,100.00
2023-04-16T03:40:16.960Z,100.00
2023-04-16T03:43:04.949Z,100.00
2023-04-16T03:45:53.853Z,100.00
2023-04-16T03:48:43.737Z,100.00
2023-04-16T03:51:33.193Z,100.00
2023-04-16T03:54:22.845Z,100.00
2023-04-16T03:57:15.581Z,100.00
2023-04-16T04:00:04.336Z,100.00
2023-04-16T04:03:02.292Z,100.00
2023-04-16T04:05:50.810Z,100.00
2023-04-16T04:08:44.891Z,100.00
2023-04-16T04:11:34.367Z,100.00
2023-04-16T04:14:22.766Z,100.00
2023-04-16T04:17:10.896Z,100.00
2023-04-16T04:20:01.325Z,100.00
2023-04-16T04:22:51.528Z,100.00
2023-04-16T04:25:44.745Z,100.00
2023-04-16T04:28:34.892Z,100.00
2023-04-16T04:31:24.019Z,100.00
2023-04-16T04:34:15.447Z,100.00
2023-04-16T04:37:03.759Z,100.00
2023-04-16T04:39:51.721Z,100.00
2023-04-16T04:42:39.643Z,100.00
2023-04-16T04:45:29.630Z,100.00
2023-04-16T04:48:19.505Z,100.00
2023-04-16T04:51:07.107Z,100.00
2023-04-16T04:53:54.726Z,100.00
2023-04-16T04:56:42.391Z,100.00
2023-04-16T04:59:29.913Z,100.00
2023-04-16T05:02:17.758Z,100.00
2023-04-16T05:05:06.292Z,100.00
2023-04-16T05:07:54.166Z,100.00
2023-04-16T05:10:42.059Z,100.00
2023-04-16T05:13:30.006Z,100.00
2023-04-16T05:16:17.740Z,100.00
2023-04-16T05:19:05.458Z,100.00
2023-04-16T05:21:53.151Z,100.00
2023-04-16T05:24:41.246Z,100.00
2023-04-16T05:27:29.038Z,100.00
2023-04-16T05:30:16.785Z,100.00
2023-04-16T05:33:04.444Z,100.00
2023-04-16T05:35:51.827Z,100.00
2023-04-16T05:38:39.569Z,100.00
2023-04-16T05:41:27.090Z,100.00
2023-04-16T05:44:15.376Z,100.00
2023-04-16T05:47:03.152Z,100.00
2023-04-16T05:49:52.085Z,100.00
2023-04-16T05:52:39.509Z,100.00
2023-04-16T05:55:28.035Z,100.00
2023-04-16T05:58:15.949Z,100.00
2023-04-16T06:01:03.540Z,100.00
2023-04-16T06:03:51.513Z,100.00
2023-04-16T06:06:40.277Z,100.00
2023-04-16T06:09:28.331Z,100.00
2023-04-16T06:12:16.015Z,100.00
2023-04-16T06:15:04.951Z,100.00
2023-04-16T06:17:52.960Z,100.00
2023-04-16T06:20:40.668Z,100.00
2023-04-16T06:23:28.458Z,100.00
2023-04-16T06:26:16.270Z,100.00
2023-04-16T06:29:04.491Z,100.00
2023-04-16T06:31:52.247Z,100.00
2023-04-16T06:34:40.070Z,100.00
2023-04-16T06:37:29.022Z,100.00
2023-04-16T06:40:17.130Z,100.00
2023-04-16T06:43:04.818Z,100.00
2023-04-16T06:45:52.592Z,100.00
2023-04-16T06:48:42.228Z,100.00
2023-04-16T06:51:30.769Z,100.00
2023-04-16T06:54:19.903Z,100.00
2023-04-16T06:57:07.965Z,100.00
2023-04-16T06:59:55.491Z,100.00
2023-04-16T07:02:43.237Z,100.00
2023-04-16T07:05:31.847Z,100.00
2023-04-16T07:08:19.370Z,100.00
2023-04-16T07:11:08.771Z,100.00
2023-04-16T07:13:57.914Z,99.96
2023-04-16T07:16:46.319Z,99.85
2023-04-16T07:19:35.361Z,99.86
2023-04-16T07:22:22.966Z,100.00
2023-04-16T07:25:11.043Z,99.33
2023-04-16T07:27:58.872Z,98.52
2023-04-16T07:30:46.648Z,98.71
2023-04-16T07:33:34.080Z,98.51
2023-04-16T07:36:23.300Z,97.99
2023-04-16T07:39:11.724Z,97.78
2023-04-16T07:42:00.233Z,97.11
2023-04-16T07:44:47.886Z,96.87
2023-04-16T07:47:35.662Z,96.92
2023-04-16T07:50:23.486Z,96.73
2023-04-16T07:53:11.909Z,96.46
2023-04-16T07:55:59.875Z,96.02
2023-04-16T07:58:47.424Z,95.92
2023-04-16T08:01:36.087Z,94.98
2023-04-16T08:04:27.453Z,93.80
2023-04-16T08:07:15.637Z,92.57
2023-04-16T08:10:03.324Z,92.70
2023-04-16T08:12:51.016Z,89.92
2023-04-16T08:15:38.945Z,87.29
2023-04-16T08:18:28.105Z,87.13
2023-04-16T08:21:16.149Z,86.04
2023-04-16T08:24:04.267Z,85.70
2023-04-16T08:26:51.979Z,84.49
2023-04-16T08:29:40.063Z,83.98
2023-04-16T08:32:28.344Z,82.09
2023-04-16T08:35:16.289Z,81.79
2023-04-16T08:38:08.492Z,79.47
2023-04-16T08:41:02.869Z,77.45
2023-04-16T08:43:54.855Z,76.25
2023-04-16T08:46:43.805Z,73.86
2023-04-16T08:49:37.681Z,71.92
2023-04-16T08:52:31.849Z,71.08
2023-04-16T08:55:35.079Z,70.21
2023-04-16T08:58:26.761Z,70.23
2023-04-16T09:01:15.626Z,69.82
2023-04-16T09:04:04.201Z,66.80
2023-04-16T09:06:54.019Z,64.26
2023-04-16T09:09:44.057Z,60.89
2023-04-16T09:12:33.005Z,58.05
2023-04-16T09:15:21.015Z,54.48
2023-04-16T09:18:09.178Z,53.83
2023-04-16T09:20:57.309Z,52.02
2023-04-16T09:23:45.900Z,49.98
2023-04-16T09:26:34.167Z,46.24
2023-04-16T09:29:36.595Z,43.39
2023-04-16T09:32:29.145Z,40.45
2023-04-16T09:35:22.486Z,38.67
2023-04-16T09:38:14.589Z,37.24
2023-04-16T09:41:09.891Z,35.29
2023-04-16T09:44:05.406Z,35.37
2023-04-16T09:46:54.628Z,34.68
2023-04-16T09:49:44.729Z,34.21
2023-04-16T09:52:38.715Z,35.41
2023-04-16T09:55:29.636Z,36.23
2023-04-16T09:58:21.407Z,37.00
2023-04-16T10:01:12.415Z,38.24
2023-04-16T10:04:01.723Z,38.35
2023-04-16T10:07:06.787Z,38.95
2023-04-16T10:09:56.007Z,39.69
2023-04-16T10:12:44.640Z,41.00
2023-04-16T10:15:34.240Z,40.84
2023-04-16T10:18:22.404Z,40.72
2023-04-16T10:21:13.325Z,41.03
2023-04-16T10:24:01.975Z,42.03
2023-04-16T10:26:52.433Z,42.59
2023-04-16T10:29:41.996Z,44.08
2023-04-16T10:32:31.590Z,45.00
2023-04-16T10:35:22.726Z,46.50
2023-04-16T10:38:27.928Z,47.31
2023-04-16T10:41:16.279Z,48.11
2023-04-16T10:44:10.094Z,47.47
2023-04-16T10:46:58.006Z,45.18
2023-04-16T10:49:48.310Z,44.32
2023-04-16T10:52:37.749Z,42.66
2023-04-16T10:55:27.244Z,42.09
2023-04-16T10:58:36.596Z,40.31
2023-04-16T11:01:45.612Z,39.52
2023-04-16T11:04:44.086Z,39.73
2023-04-16T11:07:35.355Z,39.93
2023-04-16T11:10:23.020Z,41.14
2023-04-16T11:13:12.997Z,40.85
2023-04-16T11:16:01.567Z,40.31
2023-04-16T11:18:51.454Z,40.50
2023-04-16T11:21:42.333Z,41.53
2023-04-16T11:24:31.598Z,42.11
2023-04-16T11:27:19.973Z,42.64
2023-04-16T11:30:11.938Z,43.91
2023-04-16T11:33:05.915Z,44.78
2023-04-16T11:35:59.015Z,45.07
2023-04-16T11:38:48.846Z,44.90
2023-04-16T11:41:50.618Z,45.26
2023-04-16T11:44:38.248Z,45.31
2023-04-16T11:47:27.231Z,45.47
2023-04-16T11:50:22.567Z,46.22
2023-04-16T11:53:10.397Z,47.15
2023-04-16T11:55:58.281Z,47.96
2023-04-16T11:59:05.455Z,48.99
2023-04-16T12:01:56.273Z,50.53
2023-04-16T12:04:44.091Z,51.68
2023-04-16T12:07:31.915Z,52.57
2023-04-16T12:10:19.841Z,52.86
2023-04-16T12:13:16.513Z,52.56
2023-04-16T12:16:18.460Z,53.40
2023-04-16T12:19:06.364Z,55.14
2023-04-16T12:21:54.978Z,55.55
2023-04-16T12:24:42.717Z,56.13
2023-04-16T12:27:54.033Z,57.58
2023-04-16T12:30:53.248Z,58.51
2023-04-16T12:33:42.573Z,59.23
2023-04-16T12:36:31.740Z,58.86
2023-04-16T12:39:19.937Z,59.32
2023-04-16T12:42:11.309Z,60.39
2023-04-16T12:44:59.127Z,61.36
2023-04-16T12:47:48.063Z,61.73
2023-04-16T12:50:36.294Z,61.32
2023-04-16T12:53:24.306Z,61.36
2023-04-16T12:56:12.044Z,60.76
2023-04-16T12:58:59.972Z,60.27
2023-04-16T13:01:47.855Z,59.59
2023-04-16T13:04:37.458Z,58.99
2023-04-16T13:07:26.842Z,59.22
2023-04-16T13:10:14.915Z,59.39
2023-04-16T13:13:02.864Z,59.70
2023-04-16T13:15:51.006Z,59.22
2023-04-16T13:18:40.316Z,59.87
2023-04-16T13:21:30.025Z,59.92
2023-04-16T13:24:17.799Z,60.89
2023-04-16T13:27:06.120Z,61.15
2023-04-16T13:29:53.776Z,61.85
2023-04-16T13:32:41.826Z,62.11
2023-04-16T13:35:30.100Z,62.32
2023-04-16T13:38:19.743Z,62.66
2023-04-16T13:41:08.024Z,62.76
2023-04-16T13:43:55.881Z,62.50
2023-04-16T13:46:47.692Z,62.42
2023-04-16T13:49:36.333Z,62.21
2023-04-16T13:52:24.577Z,63.22
2023-04-16T13:55:14.242Z,62.22
2023-04-16T13:58:03.352Z,61.83
2023-04-16T14:00:51.212Z,62.04
2023-04-16T14:03:40.748Z,62.69
2023-04-16T14:06:29.287Z,63.23
2023-04-16T14:09:17.377Z,63.15
2023-04-16T14:12:05.935Z,63.27
2023-04-16T14:14:57.111Z,63.24
2023-04-16T14:17:45.473Z,62.86
2023-04-16T14:20:33.538Z,62.70
2023-04-16T14:23:21.794Z,63.16
2023-04-16T14:26:10.991Z,63.43
2023-04-16T14:28:58.619Z,63.39
2023-04-16T14:31:47.851Z,63.49
2023-04-16T14:34:35.615Z,63.91
2023-04-16T14:37:23.424Z,63.64
2023-04-16T14:40:12.423Z,63.65
2023-04-16T14:43:03.629Z,63.70
2023-04-16T14:45:52.835Z,64.06
2023-04-16T14:48:40.904Z,63.69
2023-04-16T14:51:28.474Z,64.40
2023-04-16T14:54:16.381Z,65.16
2023-04-16T14:57:04.154Z,65.30
2023-04-16T14:59:53.974Z,65.56
2023-04-16T15:02:42.340Z,65.26
2023-04-16T15:05:31.593Z,65.26
2023-04-16T15:08:19.578Z,65.85
2023-04-16T15:11:09.064Z,66.38
2023-04-16T15:13:58.604Z,66.14
2023-04-16T15:16:48.058Z,66.75
2023-04-16T15:19:39.958Z,66.95
2023-04-16T15:22:28.472Z,67.97
2023-04-16T15:25:17.044Z,67.89
2023-04-16T15:28:06.596Z,68.42
2023-04-16T15:30:54.481Z,68.83
2023-04-16T15:33:42.335Z,69.71
2023-04-16T15:36:30.162Z,70.27
2023-04-16T15:39:17.748Z,69.86
2023-04-16T15:42:07.546Z,69.05
2023-04-16T15:44:57.942Z,69.79
2023-04-16T15:47:48.102Z,70.22
2023-04-16T15:50:36.753Z,71.12
2023-04-16T15:53:24.813Z,71.72
2023-04-16T15:56:12.303Z,71.83
2023-04-16T15:59:00.053Z,72.16
2023-04-16T16:01:47.768Z,72.03
2023-04-16T16:04:36.683Z,72.02
2023-04-16T16:07:25.346Z,72.06
2023-04-16T16:10:13.668Z,71.97
2023-04-16T16:13:05.461Z,71.56
2023-04-16T16:15:53.216Z,71.79
2023-04-16T16:18:42.188Z,72.13
2023-04-16T16:21:32.991Z,72.57
2023-04-16T16:24:21.093Z,73.50
2023-04-16T16:27:08.997Z,73.79
2023-04-16T16:29:56.758Z,73.75
2023-04-16T16:32:44.709Z,74.23
2023-04-16T16:35:32.672Z,74.36
2023-04-16T16:38:21.169Z,74.71
2023-04-16T16:41:09.182Z,74.81
2023-04-16T16:43:56.939Z,75.26
2023-04-16T16:46:44.811Z,75.19
2023-04-16T16:49:35.001Z,75.50
2023-04-16T16:52:25.896Z,75.68
2023-04-16T16:55:13.607Z,76.17
2023-04-16T16:58:02.344Z,76.84
2023-04-16T17:00:51.301Z,76.96
2023-04-16T17:03:41.686Z,76.91
2023-04-16T17:06:32.054Z,76.92
2023-04-16T17:09:20.288Z,77.69
2023-04-16T17:12:09.165Z,77.50
2023-04-16T17:14:59.463Z,77.72
2023-04-16T17:17:50.245Z,78.45
2023-04-16T17:20:40.038Z,78.68
2023-04-16T17:23:29.368Z,78.88
2023-04-16T17:26:20.971Z,79.20
2023-04-16T17:29:09.020Z,79.80
2023-04-16T17:31:57.313Z,80.01
2023-04-16T17:34:45.872Z,80.05
2023-04-16T17:37:34.107Z,80.83
2023-04-16T17:40:23.167Z,81.52
2023-04-16T17:43:12.659Z,81.36
2023-04-16T17:46:01.200Z,81.63
2023-04-16T17:48:52.919Z,81.81
2023-04-16T17:51:44.459Z,81.79
2023-04-16T17:54:32.764Z,81.96
2023-04-16T17:57:21.418Z,82.06
2023-04-16T18:00:11.543Z,82.67
2023-04-16T18:03:00.038Z,83.03
2023-04-16T18:05:48.367Z,83.38
2023-04-16T18:08:37.024Z,83.50
2023-04-16T18:11:24.858Z,83.38
2023-04-16T18:14:16.922Z,83.43
2023-04-16T18:17:06.617Z,83.90
2023-04-16T18:19:55.060Z,83.71
2023-04-16T18:22:42.865Z,84.07
2023-04-16T18:25:35.065Z,84.13
2023-04-16T18:28:24.588Z,84.44
2023-04-16T18:31:12.834Z,84.83
2023-04-16T18:34:00.356Z,84.87
2023-04-16T18:36:49.261Z,84.48
2023-04-16T18:39:39.972Z,84.84
2023-04-16T18:42:30.855Z,85.22
2023-04-16T18:45:21.845Z,85.13
2023-04-16T18:48:09.899Z,85.25
2023-04-16T18:50:58.618Z,85.38
2023-04-16T18:53:46.925Z,85.20
2023-04-16T18:56:35.090Z,85.51
2023-04-16T18:59:25.701Z,85.67
2023-04-16T19:02:13.781Z,85.33
2023-04-16T19:05:02.250Z,85.54
2023-04-16T19:07:49.950Z,85.53
2023-04-16T19:10:37.790Z,85.59
2023-04-16T19:13:25.735Z,85.75
2023-04-16T19:16:13.810Z,85.66
2023-04-16T19:19:02.359Z,85.44
2023-04-16T19:21:51.544Z,85.51
2023-04-16T19:24:39.881Z,85.63
2023-04-16T19:27:29.727Z,85.96
2023-04-16T19:30:30.728Z,86.03
2023-04-16T19:33:21.850Z,85.62
2023-04-16T19:36:09.948Z,86.18
2023-04-16T19:38:58.161Z,86.21
2023-04-16T19:41:46.910Z,86.01
2023-04-16T19:44:36.029Z,86.27
2023-04-16T19:47:25.065Z,86.02
2023-04-16T19:50:13.066Z,85.91
2023-04-16T19:53:01.330Z,86.31
2023-04-16T19:55:51.671Z,86.54
2023-04-16T19:58:40.101Z,86.53
2023-04-16T20:01:28.338Z,87.20
2023-04-16T20:04:16.325Z,87.16
2023-04-16T20:07:05.601Z,86.88
2023-04-16T20:09:53.401Z,87.20
2023-04-16T20:12:41.239Z,86.76
2023-04-16T20:15:28.979Z,86.89
2023-04-16T20:18:16.670Z,86.76
2023-04-16T20:21:04.620Z,86.56
2023-04-16T20:23:52.126Z,86.88
2023-04-16T20:26:40.057Z,86.75
2023-04-16T20:29:27.909Z,86.79
2023-04-16T20:32:15.973Z,86.86
2023-04-16T20:35:05.260Z,86.82
2023-04-16T20:37:53.251Z,87.03
2023-04-16T20:40:44.813Z,86.86
2023-04-16T20:43:38.387Z,87.11
2023-04-16T20:46:30.334Z,86.97
2023-04-16T20:49:18.600Z,87.12
2023-04-16T20:52:07.479Z,87.62
2023-04-16T20:54:55.097Z,87.19
2023-04-16T20:57:42.794Z,87.27
2023-04-16T21:00:30.639Z,87.16
2023-04-16T21:03:19.103Z,87.30
2023-04-16T21:06:07.142Z,87.59
2023-04-16T21:08:54.552Z,87.58
2023-04-16T21:11:44.123Z,87.51
2023-04-16T21:14:33.424Z,87.47
2023-04-16T21:17:21.733Z,87.24
2023-04-16T21:20:14.637Z,87.46
2023-04-16T21:23:04.117Z,87.12
2023-04-16T21:25:51.886Z,86.89
2023-04-16T21:28:39.657Z,86.88
2023-04-16T21:31:28.531Z,87.15
2023-04-16T21:34:17.366Z,87.25
2023-04-16T21:37:06.886Z,87.32
2023-04-16T21:39:54.242Z,87.20
2023-04-16T21:42:42.525Z,87.34
2023-04-16T21:45:33.457Z,87.22
2023-04-16T21:48:22.179Z,87.23
2023-04-16T21:51:10.635Z,86.92
2023-04-16T21:53:59.025Z,87.13
2023-04-16T21:56:46.927Z,86.67
2023-04-16T21:59:34.518Z,86.86
2023-04-16T22:02:22.521Z,86.75
2023-04-16T22:05:11.427Z,86.89
2023-04-16T22:07:59.112Z,86.82
2023-04-16T22:10:46.946Z,87.15
2023-04-16T22:13:36.762Z,86.98
2023-04-16T22:16:25.165Z,86.77
2023-04-16T22:19:14.269Z,87.17
2023-04-16T22:22:01.750Z,87.11
2023-04-16T22:24:49.390Z,87.49
2023-04-16T22:27:37.244Z,87.48
2023-04-16T22:30:24.881Z,87.38
2023-04-16T22:33:12.647Z,87.57
2023-04-16T22:36:00.835Z,87.39
2023-04-16T22:38:48.783Z,87.71
2023-04-16T22:41:36.688Z,87.94
2023-04-16T22:44:24.198Z,87.87
2023-04-16T22:47:12.390Z,87.82
2023-04-16T22:50:00.612Z,88.12
2023-04-16T22:52:48.647Z,87.83
2023-04-16T22:55:36.819Z,88.00
2023-04-16T22:58:24.738Z,88.51
2023-04-16T23:01:12.983Z,88.39
2023-04-16T23:04:01.158Z,88.01
2023-04-16T23:06:49.309Z,88.39
2023-04-16T23:09:37.217Z,88.44
2023-04-16T23:12:25.384Z,88.28
2023-04-16T23:15:14.693Z,88.23
2023-04-16T23:18:03.806Z,88.17
2023-04-16T23:20:55.097Z,88.19
2023-04-16T23:23:42.958Z,88.56
2023-04-16T23:26:32.968Z,88.41
2023-04-16T23:29:21.020Z,87.97
2023-04-16T23:32:08.688Z,88.16
2023-04-16T23:34:56.536Z,88.34
2023-04-16T23:37:44.601Z,88.35
2023-04-16T23:40:32.420Z,88.54
2023-04-16T23:43:20.054Z,88.42
2023-04-16T23:46:07.749Z,88.61
2023-04-16T23:48:55.974Z,88.90
2023-04-16T23:51:44.017Z,88.87
2023-04-16T23:54:31.724Z,89.10
2023-04-16T23:57:19.582Z,88.81
